sensor_id;sensor_type;location;lat;lon;timestamp;P1;durP1;ratioP1;P2;durP2;ratioP2
8100;SDS011;4093;53.470;9.832;2023-02-28T00:04:46;3.67;;;2.80;;
8100;SDS011;4093;53.470;9.832;2023-02-28T00:07:30;3.97;;;2.90;;
8100;SDS011;4093;53.470;9.832;2023-02-28T00:09:58;5.57;;;3.37;;
8100;SDS011;4093;53.470;9.832;2023-02-28T00:12:26;3.50;;;2.93;;
8100;SDS011;4093;53.470;9.832;2023-02-28T00:14:54;2.90;;;2.40;;
8100;SDS011;4093;53.470;9.832;2023-02-28T00:17:22;3.03;;;2.40;;
8100;SDS011;4093;53.470;9.832;2023-02-28T00:19:50;5.87;;;3.07;;
8100;SDS011;4093;53.470;9.832;2023-02-28T00:22:18;4.53;;;2.67;;
8100;SDS011;4093;53.470;9.832;2023-02-28T00:24:49;4.27;;;2.80;;
8100;SDS011;4093;53.470;9.832;2023-02-28T00:27:16;4.27;;;2.83;;
8100;SDS011;4093;53.470;9.832;2023-02-28T00:29:46;4.67;;;2.67;;
8100;SDS011;4093;53.470;9.832;2023-02-28T00:32:14;3.53;;;2.70;;
8100;SDS011;4093;53.470;9.832;2023-02-28T00:34:41;4.13;;;2.67;;
8100;SDS011;4093;53.470;9.832;2023-02-28T00:37:09;3.73;;;2.63;;
8100;SDS011;4093;53.470;9.832;2023-02-28T00:39:39;5.07;;;3.17;;
8100;SDS011;4093;53.470;9.832;2023-02-28T00:42:08;4.03;;;2.93;;
8100;SDS011;4093;53.470;9.832;2023-02-28T00:44:36;3.50;;;2.60;;
8100;SDS011;4093;53.470;9.832;2023-02-28T00:47:04;5.13;;;2.80;;
8100;SDS011;4093;53.470;9.832;2023-02-28T00:49:31;2.97;;;2.60;;
8100;SDS011;4093;53.470;9.832;2023-02-28T00:51:59;4.27;;;2.60;;
8100;SDS011;4093;53.470;9.832;2023-02-28T00:54:27;2.73;;;2.50;;
8100;SDS011;4093;53.470;9.832;2023-02-28T00:56:54;3.13;;;2.60;;
8100;SDS011;4093;53.470;9.832;2023-02-28T00:59:23;5.20;;;2.77;;
8100;SDS011;4093;53.470;9.832;2023-02-28T01:01:51;5.33;;;2.80;;
8100;SDS011;4093;53.470;9.832;2023-02-28T01:04:19;4.50;;;2.90;;
8100;SDS011;4093;53.470;9.832;2023-02-28T01:06:46;7.50;;;2.93;;
8100;SDS011;4093;53.470;9.832;2023-02-28T01:09:14;2.93;;;2.50;;
8100;SDS011;4093;53.470;9.832;2023-02-28T01:11:42;5.87;;;2.73;;
8100;SDS011;4093;53.470;9.832;2023-02-28T01:14:11;4.30;;;2.33;;
8100;SDS011;4093;53.470;9.832;2023-02-28T01:16:41;3.53;;;2.63;;
8100;SDS011;4093;53.470;9.832;2023-02-28T01:19:09;5.37;;;2.30;;
8100;SDS011;4093;53.470;9.832;2023-02-28T01:21:38;4.27;;;2.50;;
8100;SDS011;4093;53.470;9.832;2023-02-28T01:24:05;2.87;;;2.13;;
8100;SDS011;4093;53.470;9.832;2023-02-28T01:26:34;3.30;;;2.47;;
8100;SDS011;4093;53.470;9.832;2023-02-28T01:29:01;4.30;;;2.67;;
8100;SDS011;4093;53.470;9.832;2023-02-28T01:31:29;3.57;;;2.30;;
8100;SDS011;4093;53.470;9.832;2023-02-28T01:33:59;5.23;;;2.60;;
8100;SDS011;4093;53.470;9.832;2023-02-28T01:36:26;3.23;;;2.20;;
8100;SDS011;4093;53.470;9.832;2023-02-28T01:38:54;2.47;;;2.27;;
8100;SDS011;4093;53.470;9.832;2023-02-28T01:41:22;2.30;;;2.07;;
8100;SDS011;4093;53.470;9.832;2023-02-28T01:43:57;4.90;;;2.33;;
8100;SDS011;4093;53.470;9.832;2023-02-28T01:46:29;3.93;;;2.33;;
8100;SDS011;4093;53.470;9.832;2023-02-28T01:49:00;4.87;;;2.60;;
8100;SDS011;4093;53.470;9.832;2023-02-28T01:51:33;6.10;;;2.50;;
8100;SDS011;4093;53.470;9.832;2023-02-28T01:54:06;2.43;;;2.23;;
8100;SDS011;4093;53.470;9.832;2023-02-28T01:56:41;3.73;;;2.20;;
8100;SDS011;4093;53.470;9.832;2023-02-28T01:59:12;3.07;;;2.23;;
8100;SDS011;4093;53.470;9.832;2023-02-28T02:01:44;4.33;;;2.30;;
8100;SDS011;4093;53.470;9.832;2023-02-28T02:04:13;4.17;;;2.40;;
8100;SDS011;4093;53.470;9.832;2023-02-28T02:06:42;4.70;;;2.33;;
8100;SDS011;4093;53.470;9.832;2023-02-28T02:09:12;5.57;;;2.47;;
8100;SDS011;4093;53.470;9.832;2023-02-28T02:11:40;5.57;;;2.33;;
8100;SDS011;4093;53.470;9.832;2023-02-28T02:14:17;2.40;;;2.20;;
8100;SDS011;4093;53.470;9.832;2023-02-28T02:17:02;6.03;;;2.43;;
8100;SDS011;4093;53.470;9.832;2023-02-28T02:19:46;2.87;;;2.53;;
8100;SDS011;4093;53.470;9.832;2023-02-28T02:22:37;4.27;;;2.20;;
8100;SDS011;4093;53.470;9.832;2023-02-28T02:25:23;3.73;;;1.93;;
8100;SDS011;4093;53.470;9.832;2023-02-28T02:27:59;2.93;;;2.00;;
8100;SDS011;4093;53.470;9.832;2023-02-28T02:34:24;3.87;;;2.10;;
8100;SDS011;4093;53.470;9.832;2023-02-28T02:37:02;2.23;;;1.83;;
8100;SDS011;4093;53.470;9.832;2023-02-28T02:39:40;2.60;;;2.10;;
8100;SDS011;4093;53.470;9.832;2023-02-28T02:42:16;4.17;;;2.20;;
8100;SDS011;4093;53.470;9.832;2023-02-28T02:44:52;3.90;;;2.30;;
8100;SDS011;4093;53.470;9.832;2023-02-28T02:47:27;2.47;;;2.27;;
8100;SDS011;4093;53.470;9.832;2023-02-28T02:49:59;2.97;;;2.20;;
8100;SDS011;4093;53.470;9.832;2023-02-28T02:52:33;2.93;;;2.23;;
8100;SDS011;4093;53.470;9.832;2023-02-28T02:55:04;3.60;;;2.00;;
8100;SDS011;4093;53.470;9.832;2023-02-28T02:57:38;5.13;;;2.40;;
8100;SDS011;4093;53.470;9.832;2023-02-28T03:00:12;4.53;;;2.30;;
8100;SDS011;4093;53.470;9.832;2023-02-28T03:02:43;3.70;;;2.37;;
8100;SDS011;4093;53.470;9.832;2023-02-28T03:05:17;2.53;;;1.90;;
8100;SDS011;4093;53.470;9.832;2023-02-28T03:07:48;3.77;;;2.10;;
8100;SDS011;4093;53.470;9.832;2023-02-28T03:10:26;5.30;;;2.03;;
8100;SDS011;4093;53.470;9.832;2023-02-28T03:13:02;3.27;;;2.13;;
8100;SDS011;4093;53.470;9.832;2023-02-28T03:15:53;4.33;;;2.20;;
8100;SDS011;4093;53.470;9.832;2023-02-28T03:18:40;3.87;;;2.47;;
8100;SDS011;4093;53.470;9.832;2023-02-28T03:21:20;2.67;;;2.27;;
8100;SDS011;4093;53.470;9.832;2023-02-28T03:23:56;5.13;;;2.43;;
8100;SDS011;4093;53.470;9.832;2023-02-28T03:26:30;5.33;;;2.67;;
8100;SDS011;4093;53.470;9.832;2023-02-28T03:29:02;3.63;;;2.57;;
8100;SDS011;4093;53.470;9.832;2023-02-28T03:31:33;6.73;;;2.77;;
8100;SDS011;4093;53.470;9.832;2023-02-28T03:34:06;3.37;;;2.50;;
8100;SDS011;4093;53.470;9.832;2023-02-28T03:36:39;6.77;;;2.97;;
8100;SDS011;4093;53.470;9.832;2023-02-28T03:39:13;3.87;;;2.53;;
8100;SDS011;4093;53.470;9.832;2023-02-28T03:41:46;4.17;;;2.60;;
8100;SDS011;4093;53.470;9.832;2023-02-28T03:44:20;3.93;;;2.60;;
8100;SDS011;4093;53.470;9.832;2023-02-28T03:46:52;4.83;;;2.53;;
8100;SDS011;4093;53.470;9.832;2023-02-28T03:49:27;6.80;;;2.70;;
8100;SDS011;4093;53.470;9.832;2023-02-28T03:52:01;4.10;;;2.33;;
8100;SDS011;4093;53.470;9.832;2023-02-28T03:54:31;3.77;;;2.40;;
8100;SDS011;4093;53.470;9.832;2023-02-28T03:57:03;3.63;;;2.30;;
8100;SDS011;4093;53.470;9.832;2023-02-28T03:59:41;4.03;;;2.50;;
8100;SDS011;4093;53.470;9.832;2023-02-28T04:02:11;4.00;;;2.40;;
8100;SDS011;4093;53.470;9.832;2023-02-28T04:04:39;4.33;;;2.73;;
8100;SDS011;4093;53.470;9.832;2023-02-28T04:07:15;5.73;;;3.40;;
8100;SDS011;4093;53.470;9.832;2023-02-28T04:09:44;3.50;;;2.63;;
8100;SDS011;4093;53.470;9.832;2023-02-28T04:12:11;5.10;;;3.07;;
8100;SDS011;4093;53.470;9.832;2023-02-28T04:14:39;3.77;;;3.03;;
8100;SDS011;4093;53.470;9.832;2023-02-28T04:17:07;4.37;;;2.70;;
8100;SDS011;4093;53.470;9.832;2023-02-28T04:19:34;5.47;;;3.10;;
8100;SDS011;4093;53.470;9.832;2023-02-28T04:22:02;3.00;;;2.63;;
8100;SDS011;4093;53.470;9.832;2023-02-28T04:24:31;5.87;;;2.53;;
8100;SDS011;4093;53.470;9.832;2023-02-28T04:26:58;7.23;;;2.97;;
8100;SDS011;4093;53.470;9.832;2023-02-28T04:29:27;3.40;;;2.50;;
8100;SDS011;4093;53.470;9.832;2023-02-28T04:31:56;5.20;;;2.77;;
8100;SDS011;4093;53.470;9.832;2023-02-28T04:34:25;3.97;;;2.80;;
8100;SDS011;4093;53.470;9.832;2023-02-28T04:36:53;5.87;;;3.00;;
8100;SDS011;4093;53.470;9.832;2023-02-28T04:39:39;5.27;;;2.80;;
8100;SDS011;4093;53.470;9.832;2023-02-28T04:42:07;4.97;;;2.33;;
8100;SDS011;4093;53.470;9.832;2023-02-28T04:44:36;4.23;;;2.30;;
8100;SDS011;4093;53.470;9.832;2023-02-28T04:47:04;5.23;;;2.40;;
8100;SDS011;4093;53.470;9.832;2023-02-28T04:49:31;2.90;;;2.30;;
8100;SDS011;4093;53.470;9.832;2023-02-28T04:51:59;2.57;;;2.23;;
8100;SDS011;4093;53.470;9.832;2023-02-28T04:54:27;4.00;;;2.30;;
8100;SDS011;4093;53.470;9.832;2023-02-28T04:56:56;4.97;;;2.27;;
8100;SDS011;4093;53.470;9.832;2023-02-28T04:59:24;6.83;;;3.90;;
8100;SDS011;4093;53.470;9.832;2023-02-28T05:01:51;2.57;;;2.20;;
8100;SDS011;4093;53.470;9.832;2023-02-28T05:04:19;2.97;;;2.17;;
8100;SDS011;4093;53.470;9.832;2023-02-28T05:06:47;3.97;;;1.97;;
8100;SDS011;4093;53.470;9.832;2023-02-28T05:09:14;4.80;;;2.00;;
8100;SDS011;4093;53.470;9.832;2023-02-28T05:11:42;6.17;;;2.30;;
8100;SDS011;4093;53.470;9.832;2023-02-28T05:14:11;3.23;;;2.10;;
8100;SDS011;4093;53.470;9.832;2023-02-28T05:16:41;2.17;;;2.00;;
8100;SDS011;4093;53.470;9.832;2023-02-28T05:19:09;2.73;;;2.10;;
8100;SDS011;4093;53.470;9.832;2023-02-28T05:21:37;2.20;;;2.00;;
8100;SDS011;4093;53.470;9.832;2023-02-28T05:24:08;2.93;;;1.87;;
8100;SDS011;4093;53.470;9.832;2023-02-28T05:26:38;4.20;;;2.33;;
8100;SDS011;4093;53.470;9.832;2023-02-28T05:29:09;2.83;;;2.20;;
8100;SDS011;4093;53.470;9.832;2023-02-28T05:31:38;3.43;;;2.17;;
8100;SDS011;4093;53.470;9.832;2023-02-28T05:34:06;1.97;;;1.87;;
8100;SDS011;4093;53.470;9.832;2023-02-28T05:36:34;3.10;;;2.10;;
8100;SDS011;4093;53.470;9.832;2023-02-28T05:39:04;2.63;;;2.00;;
8100;SDS011;4093;53.470;9.832;2023-02-28T05:41:33;3.83;;;2.10;;
8100;SDS011;4093;53.470;9.832;2023-02-28T05:44:01;1.93;;;1.80;;
8100;SDS011;4093;53.470;9.832;2023-02-28T05:46:28;3.13;;;2.30;;
8100;SDS011;4093;53.470;9.832;2023-02-28T05:48:57;3.67;;;2.00;;
8100;SDS011;4093;53.470;9.832;2023-02-28T05:51:26;4.50;;;2.20;;
8100;SDS011;4093;53.470;9.832;2023-02-28T05:53:54;3.43;;;1.73;;
8100;SDS011;4093;53.470;9.832;2023-02-28T05:56:26;3.27;;;2.00;;
8100;SDS011;4093;53.470;9.832;2023-02-28T05:58:54;2.90;;;2.10;;
8100;SDS011;4093;53.470;9.832;2023-02-28T06:01:23;4.60;;;2.30;;
8100;SDS011;4093;53.470;9.832;2023-02-28T06:03:59;2.90;;;2.00;;
8100;SDS011;4093;53.470;9.832;2023-02-28T06:06:27;2.60;;;2.40;;
8100;SDS011;4093;53.470;9.832;2023-02-28T06:08:55;3.37;;;2.10;;
8100;SDS011;4093;53.470;9.832;2023-02-28T06:11:23;2.77;;;1.90;;
8100;SDS011;4093;53.470;9.832;2023-02-28T06:13:54;2.07;;;1.77;;
8100;SDS011;4093;53.470;9.832;2023-02-28T06:16:22;3.47;;;2.00;;
8100;SDS011;4093;53.470;9.832;2023-02-28T06:18:50;3.03;;;1.67;;
8100;SDS011;4093;53.470;9.832;2023-02-28T06:21:20;2.60;;;2.10;;
8100;SDS011;4093;53.470;9.832;2023-02-28T06:23:47;2.20;;;2.00;;
8100;SDS011;4093;53.470;9.832;2023-02-28T06:26:15;2.23;;;2.00;;
8100;SDS011;4093;53.470;9.832;2023-02-28T06:28:43;2.00;;;1.80;;
8100;SDS011;4093;53.470;9.832;2023-02-28T06:31:12;3.03;;;2.10;;
8100;SDS011;4093;53.470;9.832;2023-02-28T06:33:41;3.47;;;2.20;;
8100;SDS011;4093;53.470;9.832;2023-02-28T06:36:11;2.47;;;2.07;;
8100;SDS011;4093;53.470;9.832;2023-02-28T06:38:40;6.53;;;2.10;;
8100;SDS011;4093;53.470;9.832;2023-02-28T06:41:09;2.30;;;2.10;;
8100;SDS011;4093;53.470;9.832;2023-02-28T06:43:37;4.97;;;2.37;;
8100;SDS011;4093;53.470;9.832;2023-02-28T06:46:09;2.40;;;2.20;;
8100;SDS011;4093;53.470;9.832;2023-02-28T06:48:39;6.07;;;2.80;;
8100;SDS011;4093;53.470;9.832;2023-02-28T06:51:07;4.10;;;2.37;;
8100;SDS011;4093;53.470;9.832;2023-02-28T06:53:36;4.73;;;3.30;;
8100;SDS011;4093;53.470;9.832;2023-02-28T06:56:06;4.77;;;2.77;;
8100;SDS011;4093;53.470;9.832;2023-02-28T06:58:36;5.10;;;2.80;;
8100;SDS011;4093;53.470;9.832;2023-02-28T07:01:05;4.03;;;2.93;;
8100;SDS011;4093;53.470;9.832;2023-02-28T07:03:34;6.97;;;2.63;;
8100;SDS011;4093;53.470;9.832;2023-02-28T07:06:02;4.27;;;2.80;;
8100;SDS011;4093;53.470;9.832;2023-02-28T07:08:31;4.73;;;2.40;;
8100;SDS011;4093;53.470;9.832;2023-02-28T07:10:59;7.03;;;2.90;;
8100;SDS011;4093;53.470;9.832;2023-02-28T07:13:28;4.00;;;2.47;;
8100;SDS011;4093;53.470;9.832;2023-02-28T07:15:56;4.90;;;2.47;;
8100;SDS011;4093;53.470;9.832;2023-02-28T07:18:25;3.47;;;2.33;;
8100;SDS011;4093;53.470;9.832;2023-02-28T07:20:53;3.87;;;2.20;;
8100;SDS011;4093;53.470;9.832;2023-02-28T07:23:21;3.07;;;2.20;;
8100;SDS011;4093;53.470;9.832;2023-02-28T07:25:49;4.23;;;2.70;;
8100;SDS011;4093;53.470;9.832;2023-02-28T07:28:18;3.07;;;2.13;;
8100;SDS011;4093;53.470;9.832;2023-02-28T07:30:47;4.70;;;2.97;;
8100;SDS011;4093;53.470;9.832;2023-02-28T07:33:15;4.80;;;3.70;;
8100;SDS011;4093;53.470;9.832;2023-02-28T07:35:42;7.93;;;4.70;;
8100;SDS011;4093;53.470;9.832;2023-02-28T07:38:10;4.90;;;3.90;;
8100;SDS011;4093;53.470;9.832;2023-02-28T07:40:39;3.03;;;2.30;;
8100;SDS011;4093;53.470;9.832;2023-02-28T07:43:07;2.80;;;2.50;;
8100;SDS011;4093;53.470;9.832;2023-02-28T07:45:35;3.43;;;2.20;;
8100;SDS011;4093;53.470;9.832;2023-02-28T07:48:04;2.73;;;1.80;;
8100;SDS011;4093;53.470;9.832;2023-02-28T07:50:31;3.20;;;2.00;;
8100;SDS011;4093;53.470;9.832;2023-02-28T07:53:00;2.83;;;2.17;;
8100;SDS011;4093;53.470;9.832;2023-02-28T07:55:28;2.63;;;1.93;;
8100;SDS011;4093;53.470;9.832;2023-02-28T07:57:56;2.67;;;1.90;;
8100;SDS011;4093;53.470;9.832;2023-02-28T08:00:23;3.57;;;1.90;;
8100;SDS011;4093;53.470;9.832;2023-02-28T08:02:51;1.90;;;1.80;;
8100;SDS011;4093;53.470;9.832;2023-02-28T08:05:20;2.13;;;1.93;;
8100;SDS011;4093;53.470;9.832;2023-02-28T08:07:48;2.20;;;2.00;;
8100;SDS011;4093;53.470;9.832;2023-02-28T08:10:16;3.80;;;2.40;;
8100;SDS011;4093;53.470;9.832;2023-02-28T08:12:44;2.90;;;2.53;;
8100;SDS011;4093;53.470;9.832;2023-02-28T08:15:11;4.43;;;3.08;;
8100;SDS011;4093;53.470;9.832;2023-02-28T08:17:39;5.30;;;2.97;;
8100;SDS011;4093;53.470;9.832;2023-02-28T08:20:07;4.47;;;3.60;;
8100;SDS011;4093;53.470;9.832;2023-02-28T08:22:37;6.07;;;3.90;;
8100;SDS011;4093;53.470;9.832;2023-02-28T08:25:05;4.93;;;3.63;;
8100;SDS011;4093;53.470;9.832;2023-02-28T08:27:34;5.30;;;3.58;;
8100;SDS011;4093;53.470;9.832;2023-02-28T08:30:02;4.85;;;2.40;;
8100;SDS011;4093;53.470;9.832;2023-02-28T08:32:31;2.45;;;2.20;;
8100;SDS011;4093;53.470;9.832;2023-02-28T08:34:59;2.22;;;1.85;;
8100;SDS011;4093;53.470;9.832;2023-02-28T08:37:29;1.80;;;1.70;;
8100;SDS011;4093;53.470;9.832;2023-02-28T08:39:58;2.28;;;1.85;;
8100;SDS011;4093;53.470;9.832;2023-02-28T08:42:25;2.85;;;1.75;;
8100;SDS011;4093;53.470;9.832;2023-02-28T08:44:53;3.38;;;2.20;;
8100;SDS011;4093;53.470;9.832;2023-02-28T08:47:20;2.03;;;1.90;;
8100;SDS011;4093;53.470;9.832;2023-02-28T08:49:48;2.58;;;2.00;;
8100;SDS011;4093;53.470;9.832;2023-02-28T08:52:16;2.50;;;1.70;;
8100;SDS011;4093;53.470;9.832;2023-02-28T08:54:43;2.38;;;1.85;;
8100;SDS011;4093;53.470;9.832;2023-02-28T08:57:12;2.15;;;1.60;;
8100;SDS011;4093;53.470;9.832;2023-02-28T08:59:40;2.15;;;1.40;;
8100;SDS011;4093;53.470;9.832;2023-02-28T09:02:08;1.73;;;1.63;;
8100;SDS011;4093;53.470;9.832;2023-02-28T09:04:39;1.85;;;1.70;;
8100;SDS011;4093;53.470;9.832;2023-02-28T09:07:07;2.15;;;1.52;;
8100;SDS011;4093;53.470;9.832;2023-02-28T09:09:34;2.97;;;1.67;;
8100;SDS011;4093;53.470;9.832;2023-02-28T09:12:02;3.05;;;2.22;;
8100;SDS011;4093;53.470;9.832;2023-02-28T09:14:32;4.88;;;2.00;;
8100;SDS011;4093;53.470;9.832;2023-02-28T09:17:00;2.90;;;1.90;;
8100;SDS011;4093;53.470;9.832;2023-02-28T09:19:27;1.92;;;1.67;;
8100;SDS011;4093;53.470;9.832;2023-02-28T09:21:55;3.33;;;1.77;;
8100;SDS011;4093;53.470;9.832;2023-02-28T09:24:23;2.13;;;1.60;;
8100;SDS011;4093;53.470;9.832;2023-02-28T09:26:50;1.90;;;1.60;;
8100;SDS011;4093;53.470;9.832;2023-02-28T09:29:29;1.30;;;1.30;;
8100;SDS011;4093;53.470;9.832;2023-02-28T09:31:58;3.50;;;1.40;;
8100;SDS011;4093;53.470;9.832;2023-02-28T09:34:26;2.10;;;1.60;;
8100;SDS011;4093;53.470;9.832;2023-02-28T09:36:56;2.10;;;1.50;;
8100;SDS011;4093;53.470;9.832;2023-02-28T09:39:24;2.23;;;1.67;;
8100;SDS011;4093;53.470;9.832;2023-02-28T09:41:54;1.77;;;1.60;;
8100;SDS011;4093;53.470;9.832;2023-02-28T09:44:26;1.60;;;1.30;;
8100;SDS011;4093;53.470;9.832;2023-02-28T09:47:00;1.60;;;1.50;;
8100;SDS011;4093;53.470;9.832;2023-02-28T09:49:34;1.67;;;1.50;;
8100;SDS011;4093;53.470;9.832;2023-02-28T09:52:09;1.40;;;1.30;;
8100;SDS011;4093;53.470;9.832;2023-02-28T09:54:39;1.77;;;1.47;;
8100;SDS011;4093;53.470;9.832;2023-02-28T09:57:08;1.70;;;1.40;;
8100;SDS011;4093;53.470;9.832;2023-02-28T09:59:45;2.13;;;1.73;;
8100;SDS011;4093;53.470;9.832;2023-02-28T10:02:34;2.33;;;1.40;;
8100;SDS011;4093;53.470;9.832;2023-02-28T10:05:14;2.13;;;1.50;;
8100;SDS011;4093;53.470;9.832;2023-02-28T10:07:50;2.00;;;1.67;;
8100;SDS011;4093;53.470;9.832;2023-02-28T10:10:29;1.63;;;1.53;;
8100;SDS011;4093;53.470;9.832;2023-02-28T10:13:02;1.73;;;1.50;;
8100;SDS011;4093;53.470;9.832;2023-02-28T10:15:33;2.03;;;1.53;;
8100;SDS011;4093;53.470;9.832;2023-02-28T10:18:04;2.37;;;1.90;;
8100;SDS011;4093;53.470;9.832;2023-02-28T10:20:39;3.23;;;1.93;;
8100;SDS011;4093;53.470;9.832;2023-02-28T10:23:11;2.10;;;1.90;;
8100;SDS011;4093;53.470;9.832;2023-02-28T10:25:44;1.70;;;1.60;;
8100;SDS011;4093;53.470;9.832;2023-02-28T10:28:19;1.97;;;1.73;;
8100;SDS011;4093;53.470;9.832;2023-02-28T10:30:47;1.87;;;1.70;;
8100;SDS011;4093;53.470;9.832;2023-02-28T10:33:19;2.10;;;1.90;;
8100;SDS011;4093;53.470;9.832;2023-02-28T10:35:50;2.00;;;1.80;;
8100;SDS011;4093;53.470;9.832;2023-02-28T10:38:19;3.73;;;1.73;;
8100;SDS011;4093;53.470;9.832;2023-02-28T10:40:49;2.83;;;1.70;;
8100;SDS011;4093;53.470;9.832;2023-02-28T10:43:18;1.93;;;1.50;;
8100;SDS011;4093;53.470;9.832;2023-02-28T10:45:55;3.80;;;2.10;;
8100;SDS011;4093;53.470;9.832;2023-02-28T10:48:29;1.67;;;1.50;;
8100;SDS011;4093;53.470;9.832;2023-02-28T10:51:00;1.70;;;1.60;;
8100;SDS011;4093;53.470;9.832;2023-02-28T10:53:31;3.50;;;1.80;;
8100;SDS011;4093;53.470;9.832;2023-02-28T10:56:22;2.03;;;1.83;;
8100;SDS011;4093;53.470;9.832;2023-02-28T10:58:52;1.87;;;1.70;;
8100;SDS011;4093;53.470;9.832;2023-02-28T11:01:23;2.07;;;1.93;;
8100;SDS011;4093;53.470;9.832;2023-02-28T11:04:02;2.10;;;1.70;;
8100;SDS011;4093;53.470;9.832;2023-02-28T11:06:31;2.10;;;1.90;;
8100;SDS011;4093;53.470;9.832;2023-02-28T11:09:00;1.67;;;1.57;;
8100;SDS011;4093;53.470;9.832;2023-02-28T11:11:40;2.57;;;1.80;;
8100;SDS011;4093;53.470;9.832;2023-02-28T11:14:14;1.60;;;1.50;;
8100;SDS011;4093;53.470;9.832;2023-02-28T11:16:48;2.57;;;1.60;;
8100;SDS011;4093;53.470;9.832;2023-02-28T11:19:19;2.13;;;2.00;;
8100;SDS011;4093;53.470;9.832;2023-02-28T11:21:53;2.07;;;1.80;;
8100;SDS011;4093;53.470;9.832;2023-02-28T11:24:24;2.37;;;1.80;;
8100;SDS011;4093;53.470;9.832;2023-02-28T11:26:55;2.30;;;2.10;;
8100;SDS011;4093;53.470;9.832;2023-02-28T11:29:23;2.13;;;2.00;;
8100;SDS011;4093;53.470;9.832;2023-02-28T11:32:00;1.83;;;1.70;;
8100;SDS011;4093;53.470;9.832;2023-02-28T11:34:42;1.93;;;1.70;;
8100;SDS011;4093;53.470;9.832;2023-02-28T11:37:11;2.73;;;1.90;;
8100;SDS011;4093;53.470;9.832;2023-02-28T11:39:42;3.17;;;1.90;;
8100;SDS011;4093;53.470;9.832;2023-02-28T11:42:17;3.13;;;2.00;;
8100;SDS011;4093;53.470;9.832;2023-02-28T11:45:11;1.80;;;1.67;;
8100;SDS011;4093;53.470;9.832;2023-02-28T11:47:47;2.57;;;1.77;;
8100;SDS011;4093;53.470;9.832;2023-02-28T11:50:31;2.40;;;2.20;;
8100;SDS011;4093;53.470;9.832;2023-02-28T11:53:12;2.13;;;2.03;;
8100;SDS011;4093;53.470;9.832;2023-02-28T11:55:47;3.20;;;2.70;;
8100;SDS011;4093;53.470;9.832;2023-02-28T11:58:24;2.80;;;2.30;;
8100;SDS011;4093;53.470;9.832;2023-02-28T12:01:05;4.83;;;2.47;;
8100;SDS011;4093;53.470;9.832;2023-02-28T12:03:48;3.90;;;2.30;;
8100;SDS011;4093;53.470;9.832;2023-02-28T12:06:28;4.30;;;2.30;;
8100;SDS011;4093;53.470;9.832;2023-02-28T12:09:11;5.27;;;2.53;;
8100;SDS011;4093;53.470;9.832;2023-02-28T12:11:58;4.10;;;2.23;;
8100;SDS011;4093;53.470;9.832;2023-02-28T12:14:50;2.87;;;2.30;;
8100;SDS011;4093;53.470;9.832;2023-02-28T12:17:30;2.37;;;2.17;;
8100;SDS011;4093;53.470;9.832;2023-02-28T12:20:13;5.27;;;2.20;;
8100;SDS011;4093;53.470;9.832;2023-02-28T12:22:52;2.60;;;2.40;;
8100;SDS011;4093;53.470;9.832;2023-02-28T12:25:37;2.97;;;2.40;;
8100;SDS011;4093;53.470;9.832;2023-02-28T12:28:13;6.30;;;2.63;;
8100;SDS011;4093;53.470;9.832;2023-02-28T12:30:46;3.03;;;2.40;;
8100;SDS011;4093;53.470;9.832;2023-02-28T12:33:18;3.47;;;2.90;;
8100;SDS011;4093;53.470;9.832;2023-02-28T12:35:52;4.00;;;2.80;;
8100;SDS011;4093;53.470;9.832;2023-02-28T12:38:25;3.60;;;2.20;;
8100;SDS011;4093;53.470;9.832;2023-02-28T12:40:57;2.50;;;2.30;;
8100;SDS011;4093;53.470;9.832;2023-02-28T12:43:30;4.27;;;2.83;;
8100;SDS011;4093;53.470;9.832;2023-02-28T12:46:02;5.73;;;2.20;;
8100;SDS011;4093;53.470;9.832;2023-02-28T12:48:37;3.80;;;2.50;;
8100;SDS011;4093;53.470;9.832;2023-02-28T12:51:09;2.63;;;2.43;;
8100;SDS011;4093;53.470;9.832;2023-02-28T12:53:42;3.47;;;2.70;;
8100;SDS011;4093;53.470;9.832;2023-02-28T12:56:19;4.30;;;2.20;;
8100;SDS011;4093;53.470;9.832;2023-02-28T12:58:56;3.07;;;2.60;;
8100;SDS011;4093;53.470;9.832;2023-02-28T13:01:35;3.10;;;2.40;;
8100;SDS011;4093;53.470;9.832;2023-02-28T13:04:19;4.20;;;2.43;;
8100;SDS011;4093;53.470;9.832;2023-02-28T13:07:08;3.93;;;2.40;;
8100;SDS011;4093;53.470;9.832;2023-02-28T13:09:55;4.00;;;2.60;;
8100;SDS011;4093;53.470;9.832;2023-02-28T13:12:24;2.40;;;2.17;;
8100;SDS011;4093;53.470;9.832;2023-02-28T13:15:00;2.40;;;2.20;;
8100;SDS011;4093;53.470;9.832;2023-02-28T13:17:38;2.83;;;2.30;;
8100;SDS011;4093;53.470;9.832;2023-02-28T13:20:14;2.77;;;2.20;;
8100;SDS011;4093;53.470;9.832;2023-02-28T13:22:45;4.00;;;2.50;;
8100;SDS011;4093;53.470;9.832;2023-02-28T13:34:41;2.50;;;2.30;;
8100;SDS011;4093;53.470;9.832;2023-02-28T13:42:55;3.37;;;2.20;;
8100;SDS011;4093;53.470;9.832;2023-02-28T13:45:24;2.23;;;1.90;;
8100;SDS011;4093;53.470;9.832;2023-02-28T13:47:54;3.93;;;1.90;;
8100;SDS011;4093;53.470;9.832;2023-02-28T13:50:31;1.97;;;1.80;;
8100;SDS011;4093;53.470;9.832;2023-02-28T13:53:14;2.30;;;2.10;;
8100;SDS011;4093;53.470;9.832;2023-02-28T13:55:57;3.67;;;2.40;;
8100;SDS011;4093;53.470;9.832;2023-02-28T13:58:41;2.10;;;1.63;;
8100;SDS011;4093;53.470;9.832;2023-02-28T14:01:17;2.83;;;2.00;;
8100;SDS011;4093;53.470;9.832;2023-02-28T14:04:02;3.83;;;1.90;;
8100;SDS011;4093;53.470;9.832;2023-02-28T14:06:50;1.63;;;1.53;;
8100;SDS011;4093;53.470;9.832;2023-02-28T14:09:21;2.47;;;1.90;;
8100;SDS011;4093;53.470;9.832;2023-02-28T14:11:52;2.00;;;1.77;;
8100;SDS011;4093;53.470;9.832;2023-02-28T14:17:24;2.77;;;2.20;;
8100;SDS011;4093;53.470;9.832;2023-02-28T14:19:53;2.30;;;2.10;;
8100;SDS011;4093;53.470;9.832;2023-02-28T14:22:44;2.50;;;2.17;;
8100;SDS011;4093;53.470;9.832;2023-02-28T14:25:23;2.37;;;2.17;;
8100;SDS011;4093;53.470;9.832;2023-02-28T14:28:04;2.60;;;1.97;;
8100;SDS011;4093;53.470;9.832;2023-02-28T14:30:52;2.03;;;1.87;;
8100;SDS011;4093;53.470;9.832;2023-02-28T14:33:33;4.23;;;2.10;;
8100;SDS011;4093;53.470;9.832;2023-02-28T14:36:12;2.83;;;2.10;;
8100;SDS011;4093;53.470;9.832;2023-02-28T14:38:46;4.90;;;2.40;;
8100;SDS011;4093;53.470;9.832;2023-02-28T14:41:18;2.80;;;2.20;;
8100;SDS011;4093;53.470;9.832;2023-02-28T14:43:50;3.13;;;2.47;;
8100;SDS011;4093;53.470;9.832;2023-02-28T14:46:19;3.53;;;2.70;;
8100;SDS011;4093;53.470;9.832;2023-02-28T14:48:48;4.10;;;2.60;;
8100;SDS011;4093;53.470;9.832;2023-02-28T14:51:21;3.80;;;2.60;;
8100;SDS011;4093;53.470;9.832;2023-02-28T14:53:58;3.00;;;2.50;;
8100;SDS011;4093;53.470;9.832;2023-02-28T14:56:29;2.20;;;2.00;;
8100;SDS011;4093;53.470;9.832;2023-02-28T14:59:01;3.87;;;2.20;;
8100;SDS011;4093;53.470;9.832;2023-02-28T15:01:28;3.73;;;2.60;;
8100;SDS011;4093;53.470;9.832;2023-02-28T15:03:59;3.20;;;2.50;;
8100;SDS011;4093;53.470;9.832;2023-02-28T15:06:29;2.57;;;2.37;;
8100;SDS011;4093;53.470;9.832;2023-02-28T15:09:13;2.80;;;2.30;;
8100;SDS011;4093;53.470;9.832;2023-02-28T15:11:45;3.57;;;2.77;;
8100;SDS011;4093;53.470;9.832;2023-02-28T15:14:16;5.07;;;2.57;;
8100;SDS011;4093;53.470;9.832;2023-02-28T15:16:46;4.23;;;2.50;;
8100;SDS011;4093;53.470;9.832;2023-02-28T15:19:20;14.67;;;7.07;;
8100;SDS011;4093;53.470;9.832;2023-02-28T15:21:52;3.37;;;2.77;;
8100;SDS011;4093;53.470;9.832;2023-02-28T15:24:27;3.70;;;2.60;;
8100;SDS011;4093;53.470;9.832;2023-02-28T15:27:03;3.67;;;2.60;;
8100;SDS011;4093;53.470;9.832;2023-02-28T15:29:34;3.60;;;2.93;;
8100;SDS011;4093;53.470;9.832;2023-02-28T15:32:16;5.03;;;2.37;;
8100;SDS011;4093;53.470;9.832;2023-02-28T15:34:52;3.93;;;2.80;;
8100;SDS011;4093;53.470;9.832;2023-02-28T15:37:26;5.13;;;3.63;;
8100;SDS011;4093;53.470;9.832;2023-02-28T15:40:03;7.27;;;2.87;;
8100;SDS011;4093;53.470;9.832;2023-02-28T15:42:35;5.10;;;2.70;;
8100;SDS011;4093;53.470;9.832;2023-02-28T15:45:02;4.67;;;2.77;;
8100;SDS011;4093;53.470;9.832;2023-02-28T15:47:31;4.13;;;2.67;;
8100;SDS011;4093;53.470;9.832;2023-02-28T15:50:00;3.10;;;2.80;;
8100;SDS011;4093;53.470;9.832;2023-02-28T15:52:33;6.20;;;3.17;;
8100;SDS011;4093;53.470;9.832;2023-02-28T15:55:09;3.23;;;2.60;;
8100;SDS011;4093;53.470;9.832;2023-02-28T15:57:39;7.27;;;2.60;;
8100;SDS011;4093;53.470;9.832;2023-02-28T16:00:09;2.40;;;2.17;;
8100;SDS011;4093;53.470;9.832;2023-02-28T16:02:40;2.50;;;2.20;;
8100;SDS011;4093;53.470;9.832;2023-02-28T16:05:18;4.40;;;2.20;;
8100;SDS011;4093;53.470;9.832;2023-02-28T16:07:54;3.67;;;2.70;;
8100;SDS011;4093;53.470;9.832;2023-02-28T16:10:24;2.37;;;2.00;;